Denise, Brazil
Current Conditions -  °F | °C
As of 1:00 PM on Sunday 21 Dec 2014 (Local Time) from SBCY Reporting Station
Broken Clouds Broken Clouds  
Wind Chill: 90°   Ceiling: 2000
Heat Index: 96°   Visibility: 6mi
Dew Point: 72°   Wind: 17mph
Humidity: 55%   Direction: 340°NNW
Pressure: 29.85"   Gusts: NA
Location:  14.74°S, 57.05°W
Report Text: SBCY 211600Z 34015KT 9999 BKN020 FEW025TCU 32/22 Q1011
Loading
Personal Weather Stations






























Interactive Weather Map New forecast layout! Learn more

10-Day Weather Forecast

Advertisements
Track Severe Weather on mobile